sensor_id;sensor_type;location;lat;lon;timestamp;temperature;humidity
46336;DHT22;31365;48.858;8.530;2023-09-19T00:01:08;17.00;99.90
46336;DHT22;31365;48.858;8.530;2023-09-19T00:03:38;17.00;99.90
46336;DHT22;31365;48.858;8.530;2023-09-19T00:06:11;17.00;99.90
46336;DHT22;31365;48.858;8.530;2023-09-19T00:08:40;17.10;99.90
46336;DHT22;31365;48.858;8.530;2023-09-19T00:11:10;17.00;99.90
46336;DHT22;31365;48.858;8.530;2023-09-19T00:13:38;17.10;99.90
46336;DHT22;31365;48.858;8.530;2023-09-19T00:16:11;17.10;99.90
46336;DHT22;31365;48.858;8.530;2023-09-19T00:18:39;17.10;99.90
46336;DHT22;31365;48.858;8.530;2023-09-19T00:21:07;17.10;99.90
46336;DHT22;31365;48.858;8.530;2023-09-19T00:23:38;17.10;99.90
46336;DHT22;31365;48.858;8.530;2023-09-19T00:26:09;17.10;99.90
46336;DHT22;31365;48.858;8.530;2023-09-19T00:28:38;17.20;99.90
46336;DHT22;31365;48.858;8.530;2023-09-19T00:31:08;17.20;99.90
46336;DHT22;31365;48.858;8.530;2023-09-19T00:33:36;17.20;99.90
46336;DHT22;31365;48.858;8.530;2023-09-19T00:36:05;17.10;99.90
46336;DHT22;31365;48.858;8.530;2023-09-19T00:38:33;17.20;99.90
46336;DHT22;31365;48.858;8.530;2023-09-19T00:41:03;17.10;99.90
46336;DHT22;31365;48.858;8.530;2023-09-19T00:43:31;17.10;99.90
46336;DHT22;31365;48.858;8.530;2023-09-19T00:46:02;17.10;99.90
46336;DHT22;31365;48.858;8.530;2023-09-19T00:48:40;17.10;99.90
46336;DHT22;31365;48.858;8.530;2023-09-19T00:51:11;17.10;99.90
46336;DHT22;31365;48.858;8.530;2023-09-19T00:53:43;17.10;99.90
46336;DHT22;31365;48.858;8.530;2023-09-19T00:56:15;17.10;99.90
46336;DHT22;31365;48.858;8.530;2023-09-19T00:58:47;17.10;99.90
46336;DHT22;31365;48.858;8.530;2023-09-19T01:01:16;17.10;99.90
46336;DHT22;31365;48.858;8.530;2023-09-19T01:03:46;17.10;99.90
46336;DHT22;31365;48.858;8.530;2023-09-19T01:06:15;17.00;99.90
46336;DHT22;31365;48.858;8.530;2023-09-19T01:08:44;17.00;99.90
46336;DHT22;31365;48.858;8.530;2023-09-19T01:11:18;17.00;99.90
46336;DHT22;31365;48.858;8.530;2023-09-19T01:13:58;17.00;99.90
46336;DHT22;31365;48.858;8.530;2023-09-19T01:16:38;17.00;99.90
46336;DHT22;31365;48.858;8.530;2023-09-19T01:19:33;17.00;99.90
46336;DHT22;31365;48.858;8.530;2023-09-19T01:22:36;17.00;99.90
46336;DHT22;31365;48.858;8.530;2023-09-19T01:28:43;17.00;99.90
46336;DHT22;31365;48.858;8.530;2023-09-19T01:31:24;17.00;99.90
46336;DHT22;31365;48.858;8.530;2023-09-19T01:33:59;17.00;99.90
46336;DHT22;31365;48.858;8.530;2023-09-19T01:36:30;17.00;99.90
46336;DHT22;31365;48.858;8.530;2023-09-19T01:39:04;17.00;99.90
46336;DHT22;31365;48.858;8.530;2023-09-19T01:41:46;17.10;99.90
46336;DHT22;31365;48.858;8.530;2023-09-19T01:44:26;17.10;99.90
46336;DHT22;31365;48.858;8.530;2023-09-19T01:47:04;17.10;99.90
46336;DHT22;31365;48.858;8.530;2023-09-19T01:49:55;17.20;99.90
46336;DHT22;31365;48.858;8.530;2023-09-19T01:52:36;17.30;99.90
46336;DHT22;31365;48.858;8.530;2023-09-19T01:55:11;17.30;99.90
46336;DHT22;31365;48.858;8.530;2023-09-19T01:57:51;17.40;99.90
46336;DHT22;31365;48.858;8.530;2023-09-19T02:00:29;17.40;99.90
46336;DHT22;31365;48.858;8.530;2023-09-19T02:03:03;17.40;99.90
46336;DHT22;31365;48.858;8.530;2023-09-19T02:05:32;17.40;99.90
46336;DHT22;31365;48.858;8.530;2023-09-19T02:08:01;17.50;99.90
46336;DHT22;31365;48.858;8.530;2023-09-19T02:10:30;17.40;99.90
46336;DHT22;31365;48.858;8.530;2023-09-19T02:12:58;17.50;99.90
46336;DHT22;31365;48.858;8.530;2023-09-19T02:15:27;17.40;99.90
46336;DHT22;31365;48.858;8.530;2023-09-19T02:17:55;17.50;99.90
46336;DHT22;31365;48.858;8.530;2023-09-19T02:20:25;17.50;99.90
46336;DHT22;31365;48.858;8.530;2023-09-19T02:22:54;17.50;99.90
46336;DHT22;31365;48.858;8.530;2023-09-19T02:25:22;17.60;99.90
46336;DHT22;31365;48.858;8.530;2023-09-19T02:27:53;17.50;99.90
46336;DHT22;31365;48.858;8.530;2023-09-19T02:30:25;17.60;99.90
46336;DHT22;31365;48.858;8.530;2023-09-19T02:32:55;17.60;99.90
46336;DHT22;31365;48.858;8.530;2023-09-19T02:35:25;17.60;99.90
46336;DHT22;31365;48.858;8.530;2023-09-19T02:37:55;17.60;99.90
46336;DHT22;31365;48.858;8.530;2023-09-19T02:40:24;17.60;99.90
46336;DHT22;31365;48.858;8.530;2023-09-19T02:42:54;17.50;99.90
46336;DHT22;31365;48.858;8.530;2023-09-19T02:45:23;17.50;99.90
46336;DHT22;31365;48.858;8.530;2023-09-19T02:47:52;17.50;99.90
46336;DHT22;31365;48.858;8.530;2023-09-19T02:50:21;17.50;99.90
46336;DHT22;31365;48.858;8.530;2023-09-19T02:52:51;17.50;99.90
46336;DHT22;31365;48.858;8.530;2023-09-19T02:55:20;17.50;99.90
46336;DHT22;31365;48.858;8.530;2023-09-19T02:57:50;17.50;99.90
46336;DHT22;31365;48.858;8.530;2023-09-19T03:00:22;17.40;99.90
46336;DHT22;31365;48.858;8.530;2023-09-19T03:02:54;17.40;99.90
46336;DHT22;31365;48.858;8.530;2023-09-19T03:05:24;17.40;99.90
46336;DHT22;31365;48.858;8.530;2023-09-19T03:07:54;17.40;99.90
46336;DHT22;31365;48.858;8.530;2023-09-19T03:10:23;17.40;99.90
46336;DHT22;31365;48.858;8.530;2023-09-19T03:12:52;17.30;99.90
46336;DHT22;31365;48.858;8.530;2023-09-19T03:15:21;17.30;99.90
46336;DHT22;31365;48.858;8.530;2023-09-19T03:17:51;17.40;99.90
46336;DHT22;31365;48.858;8.530;2023-09-19T03:20:22;17.30;99.90
46336;DHT22;31365;48.858;8.530;2023-09-19T03:22:50;17.40;99.90
46336;DHT22;31365;48.858;8.530;2023-09-19T03:25:21;17.40;99.90
46336;DHT22;31365;48.858;8.530;2023-09-19T03:27:51;17.40;99.90
46336;DHT22;31365;48.858;8.530;2023-09-19T03:30:22;17.40;99.90
46336;DHT22;31365;48.858;8.530;2023-09-19T03:32:51;17.30;99.90
46336;DHT22;31365;48.858;8.530;2023-09-19T03:35:21;17.30;99.90
46336;DHT22;31365;48.858;8.530;2023-09-19T03:37:49;17.30;99.90
46336;DHT22;31365;48.858;8.530;2023-09-19T03:40:21;17.30;99.90
46336;DHT22;31365;48.858;8.530;2023-09-19T03:42:50;17.30;99.90
46336;DHT22;31365;48.858;8.530;2023-09-19T03:45:19;17.30;99.90
46336;DHT22;31365;48.858;8.530;2023-09-19T03:47:50;17.20;99.90
46336;DHT22;31365;48.858;8.530;2023-09-19T03:50:22;17.30;99.90
46336;DHT22;31365;48.858;8.530;2023-09-19T03:52:56;17.20;99.90
46336;DHT22;31365;48.858;8.530;2023-09-19T03:55:26;17.20;99.90
46336;DHT22;31365;48.858;8.530;2023-09-19T03:57:54;17.20;99.90
46336;DHT22;31365;48.858;8.530;2023-09-19T04:00:23;17.20;99.90
46336;DHT22;31365;48.858;8.530;2023-09-19T04:02:53;17.10;99.90
46336;DHT22;31365;48.858;8.530;2023-09-19T04:05:23;17.10;99.90
46336;DHT22;31365;48.858;8.530;2023-09-19T04:07:52;17.00;99.90
46336;DHT22;31365;48.858;8.530;2023-09-19T04:10:20;17.00;99.90
46336;DHT22;31365;48.858;8.530;2023-09-19T04:12:54;16.90;99.90
46336;DHT22;31365;48.858;8.530;2023-09-19T04:15:23;16.90;99.90
46336;DHT22;31365;48.858;8.530;2023-09-19T04:17:53;16.80;99.90
46336;DHT22;31365;48.858;8.530;2023-09-19T04:20:22;16.70;99.90
46336;DHT22;31365;48.858;8.530;2023-09-19T04:22:51;16.60;99.90
46336;DHT22;31365;48.858;8.530;2023-09-19T04:25:20;16.60;99.90
46336;DHT22;31365;48.858;8.530;2023-09-19T04:27:48;16.60;99.90
46336;DHT22;31365;48.858;8.530;2023-09-19T04:30:18;16.50;99.90
46336;DHT22;31365;48.858;8.530;2023-09-19T04:32:48;16.50;99.90
46336;DHT22;31365;48.858;8.530;2023-09-19T04:35:18;16.50;99.90
46336;DHT22;31365;48.858;8.530;2023-09-19T04:37:47;16.50;99.90
46336;DHT22;31365;48.858;8.530;2023-09-19T04:40:15;16.40;99.90
46336;DHT22;31365;48.858;8.530;2023-09-19T04:42:45;16.30;99.90
46336;DHT22;31365;48.858;8.530;2023-09-19T04:45:15;16.30;99.90
46336;DHT22;31365;48.858;8.530;2023-09-19T04:47:45;16.30;99.90
46336;DHT22;31365;48.858;8.530;2023-09-19T04:50:14;16.20;99.90
46336;DHT22;31365;48.858;8.530;2023-09-19T04:52:44;16.30;99.90
46336;DHT22;31365;48.858;8.530;2023-09-19T04:55:18;16.30;99.90
46336;DHT22;31365;48.858;8.530;2023-09-19T04:57:49;16.30;99.90
46336;DHT22;31365;48.858;8.530;2023-09-19T05:00:20;16.30;99.90
46336;DHT22;31365;48.858;8.530;2023-09-19T05:02:55;16.30;99.90
46336;DHT22;31365;48.858;8.530;2023-09-19T05:05:25;16.30;99.90
46336;DHT22;31365;48.858;8.530;2023-09-19T05:07:53;16.20;99.90
46336;DHT22;31365;48.858;8.530;2023-09-19T05:10:22;16.20;99.90
46336;DHT22;31365;48.858;8.530;2023-09-19T05:12:53;16.20;99.90
46336;DHT22;31365;48.858;8.530;2023-09-19T05:15:22;16.20;99.90
46336;DHT22;31365;48.858;8.530;2023-09-19T05:17:52;16.20;99.90
46336;DHT22;31365;48.858;8.530;2023-09-19T05:20:24;16.20;99.90
46336;DHT22;31365;48.858;8.530;2023-09-19T05:22:58;16.20;99.90
46336;DHT22;31365;48.858;8.530;2023-09-19T05:25:28;16.20;99.90
46336;DHT22;31365;48.858;8.530;2023-09-19T05:27:57;16.20;99.90
46336;DHT22;31365;48.858;8.530;2023-09-19T05:30:27;16.20;99.90
46336;DHT22;31365;48.858;8.530;2023-09-19T05:32:57;16.20;99.90
46336;DHT22;31365;48.858;8.530;2023-09-19T05:35:26;16.20;99.90
46336;DHT22;31365;48.858;8.530;2023-09-19T05:37:54;16.10;99.90
46336;DHT22;31365;48.858;8.530;2023-09-19T05:40:23;16.00;99.90
46336;DHT22;31365;48.858;8.530;2023-09-19T05:42:52;16.10;99.90
46336;DHT22;31365;48.858;8.530;2023-09-19T05:45:20;16.10;99.90
46336;DHT22;31365;48.858;8.530;2023-09-19T05:47:50;16.00;99.90
46336;DHT22;31365;48.858;8.530;2023-09-19T05:50:24;16.00;99.90
46336;DHT22;31365;48.858;8.530;2023-09-19T05:52:53;16.00;99.90
46336;DHT22;31365;48.858;8.530;2023-09-19T05:55:23;16.00;99.90
46336;DHT22;31365;48.858;8.530;2023-09-19T05:57:52;16.10;99.90
46336;DHT22;31365;48.858;8.530;2023-09-19T06:00:23;16.10;99.90
46336;DHT22;31365;48.858;8.530;2023-09-19T06:02:55;16.10;99.90
46336;DHT22;31365;48.858;8.530;2023-09-19T06:05:27;16.10;99.90
46336;DHT22;31365;48.858;8.530;2023-09-19T06:07:57;16.10;99.90
46336;DHT22;31365;48.858;8.530;2023-09-19T06:10:27;16.00;99.90
46336;DHT22;31365;48.858;8.530;2023-09-19T06:12:58;16.00;99.90
46336;DHT22;31365;48.858;8.530;2023-09-19T06:15:26;16.00;99.90
46336;DHT22;31365;48.858;8.530;2023-09-19T06:17:55;16.10;99.90
46336;DHT22;31365;48.858;8.530;2023-09-19T06:20:26;16.00;99.90
46336;DHT22;31365;48.858;8.530;2023-09-19T06:22:54;16.00;99.90
46336;DHT22;31365;48.858;8.530;2023-09-19T06:25:23;16.00;99.90
46336;DHT22;31365;48.858;8.530;2023-09-19T06:27:53;16.00;99.90
46336;DHT22;31365;48.858;8.530;2023-09-19T06:30:23;16.00;99.90
46336;DHT22;31365;48.858;8.530;2023-09-19T06:32:55;16.00;99.90
46336;DHT22;31365;48.858;8.530;2023-09-19T06:35:26;16.00;99.90
46336;DHT22;31365;48.858;8.530;2023-09-19T06:37:57;16.00;99.90
46336;DHT22;31365;48.858;8.530;2023-09-19T06:40:25;16.10;99.90
46336;DHT22;31365;48.858;8.530;2023-09-19T06:42:55;16.10;99.90
46336;DHT22;31365;48.858;8.530;2023-09-19T06:45:23;16.00;99.90
46336;DHT22;31365;48.858;8.530;2023-09-19T06:47:54;16.00;99.90
46336;DHT22;31365;48.858;8.530;2023-09-19T06:50:27;16.10;99.90
46336;DHT22;31365;48.858;8.530;2023-09-19T06:52:57;16.00;99.90
46336;DHT22;31365;48.858;8.530;2023-09-19T06:55:26;16.10;99.90
46336;DHT22;31365;48.858;8.530;2023-09-19T06:57:58;16.10;99.90
46336;DHT22;31365;48.858;8.530;2023-09-19T07:00:27;16.10;99.90
46336;DHT22;31365;48.858;8.530;2023-09-19T07:03:00;16.10;99.90
46336;DHT22;31365;48.858;8.530;2023-09-19T07:05:33;16.10;99.90
46336;DHT22;31365;48.858;8.530;2023-09-19T07:08:07;16.10;99.90
46336;DHT22;31365;48.858;8.530;2023-09-19T07:10:38;16.20;99.90
46336;DHT22;31365;48.858;8.530;2023-09-19T07:13:08;16.30;99.90
46336;DHT22;31365;48.858;8.530;2023-09-19T07:15:38;16.40;99.90
46336;DHT22;31365;48.858;8.530;2023-09-19T07:18:14;16.50;99.90
46336;DHT22;31365;48.858;8.530;2023-09-19T07:20:46;16.60;99.90
46336;DHT22;31365;48.858;8.530;2023-09-19T07:23:17;16.60;99.90
46336;DHT22;31365;48.858;8.530;2023-09-19T07:25:47;16.70;99.90
46336;DHT22;31365;48.858;8.530;2023-09-19T07:28:16;16.80;99.90
46336;DHT22;31365;48.858;8.530;2023-09-19T07:30:46;16.90;99.90
46336;DHT22;31365;48.858;8.530;2023-09-19T07:33:14;17.00;99.90
46336;DHT22;31365;48.858;8.530;2023-09-19T07:35:46;16.90;99.90
46336;DHT22;31365;48.858;8.530;2023-09-19T07:38:16;16.90;99.90
46336;DHT22;31365;48.858;8.530;2023-09-19T07:40:44;17.00;99.90
46336;DHT22;31365;48.858;8.530;2023-09-19T07:43:13;17.10;99.90
46336;DHT22;31365;48.858;8.530;2023-09-19T07:45:41;17.10;99.90
46336;DHT22;31365;48.858;8.530;2023-09-19T07:48:10;17.20;99.90
46336;DHT22;31365;48.858;8.530;2023-09-19T07:50:41;17.20;99.90
46336;DHT22;31365;48.858;8.530;2023-09-19T07:53:13;17.30;99.90
46336;DHT22;31365;48.858;8.530;2023-09-19T07:55:43;17.40;99.90
46336;DHT22;31365;48.858;8.530;2023-09-19T07:58:15;17.50;99.90
46336;DHT22;31365;48.858;8.530;2023-09-19T08:00:43;17.60;99.90
46336;DHT22;31365;48.858;8.530;2023-09-19T08:03:12;17.70;99.90
46336;DHT22;31365;48.858;8.530;2023-09-19T08:05:44;17.70;99.90
46336;DHT22;31365;48.858;8.530;2023-09-19T08:08:14;17.80;99.90
46336;DHT22;31365;48.858;8.530;2023-09-19T08:10:43;17.90;99.90
46336;DHT22;31365;48.858;8.530;2023-09-19T08:13:16;18.00;99.90
46336;DHT22;31365;48.858;8.530;2023-09-19T08:15:45;18.00;99.90
46336;DHT22;31365;48.858;8.530;2023-09-19T08:18:14;18.10;99.90
46336;DHT22;31365;48.858;8.530;2023-09-19T08:20:49;18.20;99.90
46336;DHT22;31365;48.858;8.530;2023-09-19T08:23:19;18.30;99.90
46336;DHT22;31365;48.858;8.530;2023-09-19T08:25:48;18.30;99.90
46336;DHT22;31365;48.858;8.530;2023-09-19T08:28:17;18.40;99.90
46336;DHT22;31365;48.858;8.530;2023-09-19T08:30:50;18.50;99.90
46336;DHT22;31365;48.858;8.530;2023-09-19T08:33:20;18.70;99.90
46336;DHT22;31365;48.858;8.530;2023-09-19T08:35:48;18.90;99.90
46336;DHT22;31365;48.858;8.530;2023-09-19T08:38:16;19.00;99.90
46336;DHT22;31365;48.858;8.530;2023-09-19T08:40:45;18.80;99.90
46336;DHT22;31365;48.858;8.530;2023-09-19T08:43:14;18.70;99.90
46336;DHT22;31365;48.858;8.530;2023-09-19T08:45:42;18.80;99.90
46336;DHT22;31365;48.858;8.530;2023-09-19T08:48:17;18.80;99.90
46336;DHT22;31365;48.858;8.530;2023-09-19T08:50:54;18.90;99.90
46336;DHT22;31365;48.858;8.530;2023-09-19T08:53:27;19.00;99.90
46336;DHT22;31365;48.858;8.530;2023-09-19T08:56:08;19.00;99.90
46336;DHT22;31365;48.858;8.530;2023-09-19T08:58:45;19.00;99.90
46336;DHT22;31365;48.858;8.530;2023-09-19T09:01:17;19.10;99.90
46336;DHT22;31365;48.858;8.530;2023-09-19T09:03:52;19.10;99.90
46336;DHT22;31365;48.858;8.530;2023-09-19T09:06:23;19.10;99.90
46336;DHT22;31365;48.858;8.530;2023-09-19T09:08:53;19.30;99.90
46336;DHT22;31365;48.858;8.530;2023-09-19T09:11:23;19.30;99.90
46336;DHT22;31365;48.858;8.530;2023-09-19T09:13:52;19.50;99.90
46336;DHT22;31365;48.858;8.530;2023-09-19T09:16:20;19.60;99.90
46336;DHT22;31365;48.858;8.530;2023-09-19T09:18:53;19.80;99.90
46336;DHT22;31365;48.858;8.530;2023-09-19T09:21:22;19.90;99.90
46336;DHT22;31365;48.858;8.530;2023-09-19T09:23:53;20.10;99.90
46336;DHT22;31365;48.858;8.530;2023-09-19T09:26:44;20.00;99.90
46336;DHT22;31365;48.858;8.530;2023-09-19T09:29:14;19.90;99.90
46336;DHT22;31365;48.858;8.530;2023-09-19T09:32:16;19.90;99.90
46336;DHT22;31365;48.858;8.530;2023-09-19T09:34:49;20.00;99.90
46336;DHT22;31365;48.858;8.530;2023-09-19T09:37:20;20.00;99.90
46336;DHT22;31365;48.858;8.530;2023-09-19T09:39:50;19.90;99.90
46336;DHT22;31365;48.858;8.530;2023-09-19T09:42:32;19.80;99.90
46336;DHT22;31365;48.858;8.530;2023-09-19T09:45:13;19.50;99.90
46336;DHT22;31365;48.858;8.530;2023-09-19T09:47:44;19.40;99.90
46336;DHT22;31365;48.858;8.530;2023-09-19T09:50:28;19.30;99.90
46336;DHT22;31365;48.858;8.530;2023-09-19T09:53:19;19.20;99.90
46336;DHT22;31365;48.858;8.530;2023-09-19T09:56:00;19.20;99.90
46336;DHT22;31365;48.858;8.530;2023-09-19T09:58:36;19.10;99.90
46336;DHT22;31365;48.858;8.530;2023-09-19T10:01:07;19.20;99.90
46336;DHT22;31365;48.858;8.530;2023-09-19T10:03:43;19.10;99.90
46336;DHT22;31365;48.858;8.530;2023-09-19T10:06:15;19.00;99.90
46336;DHT22;31365;48.858;8.530;2023-09-19T10:09:02;19.00;99.90
46336;DHT22;31365;48.858;8.530;2023-09-19T10:11:42;19.10;99.90
46336;DHT22;31365;48.858;8.530;2023-09-19T10:14:15;19.10;99.90
46336;DHT22;31365;48.858;8.530;2023-09-19T10:16:48;19.10;99.90
46336;DHT22;31365;48.858;8.530;2023-09-19T10:19:23;19.00;99.90
46336;DHT22;31365;48.858;8.530;2023-09-19T10:21:58;18.90;99.90
46336;DHT22;31365;48.858;8.530;2023-09-19T10:24:30;19.00;99.90
46336;DHT22;31365;48.858;8.530;2023-09-19T10:27:06;19.30;99.90
46336;DHT22;31365;48.858;8.530;2023-09-19T10:29:39;19.60;99.90
46336;DHT22;31365;48.858;8.530;2023-09-19T10:32:30;20.20;99.90
46336;DHT22;31365;48.858;8.530;2023-09-19T10:35:01;20.80;99.90
46336;DHT22;31365;48.858;8.530;2023-09-19T10:37:32;21.50;99.90
46336;DHT22;31365;48.858;8.530;2023-09-19T10:40:06;21.80;99.90
46336;DHT22;31365;48.858;8.530;2023-09-19T10:42:38;22.50;99.90
46336;DHT22;31365;48.858;8.530;2023-09-19T10:45:12;23.20;99.90
46336;DHT22;31365;48.858;8.530;2023-09-19T10:47:47;23.10;99.90
46336;DHT22;31365;48.858;8.530;2023-09-19T10:50:20;22.90;99.90
46336;DHT22;31365;48.858;8.530;2023-09-19T10:52:50;22.70;99.90
46336;DHT22;31365;48.858;8.530;2023-09-19T10:55:25;22.70;99.90
46336;DHT22;31365;48.858;8.530;2023-09-19T10:58:25;22.90;99.90
46336;DHT22;31365;48.858;8.530;2023-09-19T11:00:58;22.90;99.90
46336;DHT22;31365;48.858;8.530;2023-09-19T11:03:39;23.20;99.90
46336;DHT22;31365;48.858;8.530;2023-09-19T11:06:12;23.60;99.90
46336;DHT22;31365;48.858;8.530;2023-09-19T11:09:00;23.90;99.90
46336;DHT22;31365;48.858;8.530;2023-09-19T11:11:47;24.40;99.90
46336;DHT22;31365;48.858;8.530;2023-09-19T11:14:42;24.60;99.90
46336;DHT22;31365;48.858;8.530;2023-09-19T11:17:32;24.20;99.90
46336;DHT22;31365;48.858;8.530;2023-09-19T11:20:20;23.90;99.90
46336;DHT22;31365;48.858;8.530;2023-09-19T11:23:24;23.60;99.90
46336;DHT22;31365;48.858;8.530;2023-09-19T11:25:53;23.80;99.90
46336;DHT22;31365;48.858;8.530;2023-09-19T11:28:32;24.50;99.90
46336;DHT22;31365;48.858;8.530;2023-09-19T11:40:46;27.00;99.90
46336;DHT22;31365;48.858;8.530;2023-09-19T11:43:29;27.00;99.90
46336;DHT22;31365;48.858;8.530;2023-09-19T11:46:05;26.20;99.90
46336;DHT22;31365;48.858;8.530;2023-09-19T11:48:38;25.40;99.90
46336;DHT22;31365;48.858;8.530;2023-09-19T11:51:16;25.70;99.90
46336;DHT22;31365;48.858;8.530;2023-09-19T11:53:57;25.30;99.90
46336;DHT22;31365;48.858;8.530;2023-09-19T11:56:27;24.80;99.90
46336;DHT22;31365;48.858;8.530;2023-09-19T11:58:57;25.20;99.90
46336;DHT22;31365;48.858;8.530;2023-09-19T12:01:30;25.30;99.90
46336;DHT22;31365;48.858;8.530;2023-09-19T12:04:01;25.20;99.90
46336;DHT22;31365;48.858;8.530;2023-09-19T12:06:33;25.50;99.90
46336;DHT22;31365;48.858;8.530;2023-09-19T12:09:03;25.20;99.90
46336;DHT22;31365;48.858;8.530;2023-09-19T12:11:41;25.00;99.90
46336;DHT22;31365;48.858;8.530;2023-09-19T12:14:16;24.70;99.90
46336;DHT22;31365;48.858;8.530;2023-09-19T12:16:53;25.00;99.90
46336;DHT22;31365;48.858;8.530;2023-09-19T12:19:24;25.20;99.90
46336;DHT22;31365;48.858;8.530;2023-09-19T12:21:57;24.80;99.90
46336;DHT22;31365;48.858;8.530;2023-09-19T12:24:27;24.20;99.90
46336;DHT22;31365;48.858;8.530;2023-09-19T12:27:02;24.30;99.90
46336;DHT22;31365;48.858;8.530;2023-09-19T12:29:45;25.90;99.90
46336;DHT22;31365;48.858;8.530;2023-09-19T12:32:15;27.00;99.90
46336;DHT22;31365;48.858;8.530;2023-09-19T12:34:53;28.00;98.80
46336;DHT22;31365;48.858;8.530;2023-09-19T12:37:23;27.40;99.70
46336;DHT22;31365;48.858;8.530;2023-09-19T12:40:04;26.80;99.40
46336;DHT22;31365;48.858;8.530;2023-09-19T12:42:43;26.20;99.90
46336;DHT22;31365;48.858;8.530;2023-09-19T12:45:32;26.00;99.50
46336;DHT22;31365;48.858;8.530;2023-09-19T12:48:18;25.90;99.30
46336;DHT22;31365;48.858;8.530;2023-09-19T12:51:01;26.30;99.40
46336;DHT22;31365;48.858;8.530;2023-09-19T12:53:36;27.80;98.00
46336;DHT22;31365;48.858;8.530;2023-09-19T12:56:10;28.60;96.40
46336;DHT22;31365;48.858;8.530;2023-09-19T12:58:49;29.10;95.20
46336;DHT22;31365;48.858;8.530;2023-09-19T13:01:18;29.80;94.30
46336;DHT22;31365;48.858;8.530;2023-09-19T13:04:13;30.60;93.40
46336;DHT22;31365;48.858;8.530;2023-09-19T13:06:45;30.60;92.20
46336;DHT22;31365;48.858;8.530;2023-09-19T13:09:18;29.70;92.10
46336;DHT22;31365;48.858;8.530;2023-09-19T13:11:47;29.70;92.30
46336;DHT22;31365;48.858;8.530;2023-09-19T13:14:19;30.10;92.20
46336;DHT22;31365;48.858;8.530;2023-09-19T13:16:57;31.00;91.70
46336;DHT22;31365;48.858;8.530;2023-09-19T13:19:41;31.50;90.20
46336;DHT22;31365;48.858;8.530;2023-09-19T13:22:39;31.50;88.50
46336;DHT22;31365;48.858;8.530;2023-09-19T13:25:11;31.50;88.40
46336;DHT22;31365;48.858;8.530;2023-09-19T13:27:43;32.00;87.60
46336;DHT22;31365;48.858;8.530;2023-09-19T13:30:12;31.40;87.10
46336;DHT22;31365;48.858;8.530;2023-09-19T13:32:41;31.40;87.80
46336;DHT22;31365;48.858;8.530;2023-09-19T13:35:10;30.60;87.70
46336;DHT22;31365;48.858;8.530;2023-09-19T13:37:39;30.30;86.50
46336;DHT22;31365;48.858;8.530;2023-09-19T13:40:12;29.10;89.30
46336;DHT22;31365;48.858;8.530;2023-09-19T13:42:42;28.70;90.60
46336;DHT22;31365;48.858;8.530;2023-09-19T13:45:10;28.70;90.60
46336;DHT22;31365;48.858;8.530;2023-09-19T13:47:42;28.30;91.10
46336;DHT22;31365;48.858;8.530;2023-09-19T13:50:10;28.00;91.40
46336;DHT22;31365;48.858;8.530;2023-09-19T13:52:40;27.90;91.10
46336;DHT22;31365;48.858;8.530;2023-09-19T13:55:10;28.00;90.80
46336;DHT22;31365;48.858;8.530;2023-09-19T13:57:43;27.70;90.90
46336;DHT22;31365;48.858;8.530;2023-09-19T14:00:12;27.30;90.60
46336;DHT22;31365;48.858;8.530;2023-09-19T14:03:02;28.10;90.80
46336;DHT22;31365;48.858;8.530;2023-09-19T14:05:31;28.60;90.30
46336;DHT22;31365;48.858;8.530;2023-09-19T14:08:00;29.20;90.00
46336;DHT22;31365;48.858;8.530;2023-09-19T14:10:31;29.60;88.00
46336;DHT22;31365;48.858;8.530;2023-09-19T14:13:00;30.00;87.00
46336;DHT22;31365;48.858;8.530;2023-09-19T14:15:28;30.00;85.60
46336;DHT22;31365;48.858;8.530;2023-09-19T14:18:01;29.80;86.40
46336;DHT22;31365;48.858;8.530;2023-09-19T14:20:29;30.10;85.60
46336;DHT22;31365;48.858;8.530;2023-09-19T14:22:58;29.80;85.90
46336;DHT22;31365;48.858;8.530;2023-09-19T14:25:27;29.40;86.90
46336;DHT22;31365;48.858;8.530;2023-09-19T14:27:57;28.50;88.10
46336;DHT22;31365;48.858;8.530;2023-09-19T14:30:26;27.20;90.40
46336;DHT22;31365;48.858;8.530;2023-09-19T14:32:54;26.50;91.50
46336;DHT22;31365;48.858;8.530;2023-09-19T14:35:25;26.00;92.30
46336;DHT22;31365;48.858;8.530;2023-09-19T14:37:53;25.60;92.10
46336;DHT22;31365;48.858;8.530;2023-09-19T14:40:25;25.30;92.60
46336;DHT22;31365;48.858;8.530;2023-09-19T14:42:54;25.00;92.90
46336;DHT22;31365;48.858;8.530;2023-09-19T14:45:23;24.90;93.40
46336;DHT22;31365;48.858;8.530;2023-09-19T14:47:52;24.70;94.00
46336;DHT22;31365;48.858;8.530;2023-09-19T14:50:21;24.40;93.80
46336;DHT22;31365;48.858;8.530;2023-09-19T14:52:50;24.30;94.70
46336;DHT22;31365;48.858;8.530;2023-09-19T14:55:39;24.30;94.40
46336;DHT22;31365;48.858;8.530;2023-09-19T14:58:09;24.10;94.10
46336;DHT22;31365;48.858;8.530;2023-09-19T15:00:39;23.90;94.80
46336;DHT22;31365;48.858;8.530;2023-09-19T15:03:07;23.60;95.40
46336;DHT22;31365;48.858;8.530;2023-09-19T15:05:37;23.40;95.30
46336;DHT22;31365;48.858;8.530;2023-09-19T15:08:07;23.20;96.20
46336;DHT22;31365;48.858;8.530;2023-09-19T15:10:35;23.10;96.20
46336;DHT22;31365;48.858;8.530;2023-09-19T15:13:04;23.20;96.20
46336;DHT22;31365;48.858;8.530;2023-09-19T15:15:32;23.20;96.50
46336;DHT22;31365;48.858;8.530;2023-09-19T15:18:02;23.40;96.50
46336;DHT22;31365;48.858;8.530;2023-09-19T15:20:34;23.40;96.50
46336;DHT22;31365;48.858;8.530;2023-09-19T15:23:04;23.30;96.70
46336;DHT22;31365;48.858;8.530;2023-09-19T15:25:32;23.30;96.90
46336;DHT22;31365;48.858;8.530;2023-09-19T15:28:05;23.30;97.10
46336;DHT22;31365;48.858;8.530;2023-09-19T15:30:37;23.30;96.60
46336;DHT22;31365;48.858;8.530;2023-09-19T15:33:07;23.30;97.00
46336;DHT22;31365;48.858;8.530;2023-09-19T15:35:37;23.20;97.30
46336;DHT22;31365;48.858;8.530;2023-09-19T15:38:05;23.20;96.90
46336;DHT22;31365;48.858;8.530;2023-09-19T15:40:52;23.20;97.30
46336;DHT22;31365;48.858;8.530;2023-09-19T15:43:20;23.20;97.50
46336;DHT22;31365;48.858;8.530;2023-09-19T15:45:49;23.20;97.30
46336;DHT22;31365;48.858;8.530;2023-09-19T15:48:20;23.10;97.40
46336;DHT22;31365;48.858;8.530;2023-09-19T15:50:49;23.20;97.50
46336;DHT22;31365;48.858;8.530;2023-09-19T15:53:17;23.10;97.40
46336;DHT22;31365;48.858;8.530;2023-09-19T15:55:45;23.00;97.60
46336;DHT22;31365;48.858;8.530;2023-09-19T15:58:14;22.90;97.80
46336;DHT22;31365;48.858;8.530;2023-09-19T16:00:42;22.90;98.00
46336;DHT22;31365;48.858;8.530;2023-09-19T16:03:10;22.80;98.30
46336;DHT22;31365;48.858;8.530;2023-09-19T16:05:41;22.70;98.60
46336;DHT22;31365;48.858;8.530;2023-09-19T16:08:12;22.60;98.40
46336;DHT22;31365;48.858;8.530;2023-09-19T16:10:40;22.70;99.00
46336;DHT22;31365;48.858;8.530;2023-09-19T16:13:08;22.70;99.00
46336;DHT22;31365;48.858;8.530;2023-09-19T16:15:41;22.60;99.00